sensor_id;sensor_type;location;lat;lon;timestamp;P1;durP1;ratioP1;P2;durP2;ratioP2
13683;SDS011;6914;53.552;9.908;2023-01-24T00:00:06;32.97;;;18.33;;
13683;SDS011;6914;53.552;9.908;2023-01-24T00:02:34;42.60;;;20.00;;
13683;SDS011;6914;53.552;9.908;2023-01-24T00:05:02;42.37;;;21.00;;
13683;SDS011;6914;53.552;9.908;2023-01-24T00:07:29;44.70;;;19.10;;
13683;SDS011;6914;53.552;9.908;2023-01-24T00:09:56;38.77;;;18.60;;
13683;SDS011;6914;53.552;9.908;2023-01-24T00:12:23;35.83;;;18.50;;
13683;SDS011;6914;53.552;9.908;2023-01-24T00:14:51;35.10;;;19.53;;
13683;SDS011;6914;53.552;9.908;2023-01-24T00:17:18;29.53;;;17.87;;
13683;SDS011;6914;53.552;9.908;2023-01-24T00:19:46;32.73;;;18.90;;
13683;SDS011;6914;53.552;9.908;2023-01-24T00:22:13;32.83;;;19.67;;
13683;SDS011;6914;53.552;9.908;2023-01-24T00:24:40;34.40;;;19.00;;
13683;SDS011;6914;53.552;9.908;2023-01-24T00:27:07;37.13;;;20.10;;
13683;SDS011;6914;53.552;9.908;2023-01-24T00:29:33;39.43;;;20.03;;
13683;SDS011;6914;53.552;9.908;2023-01-24T00:32:02;43.40;;;20.63;;
13683;SDS011;6914;53.552;9.908;2023-01-24T00:34:29;44.53;;;19.50;;
13683;SDS011;6914;53.552;9.908;2023-01-24T00:36:56;38.33;;;19.80;;
13683;SDS011;6914;53.552;9.908;2023-01-24T00:39:23;40.30;;;20.60;;
13683;SDS011;6914;53.552;9.908;2023-01-24T00:41:49;34.57;;;19.97;;
13683;SDS011;6914;53.552;9.908;2023-01-24T00:44:16;39.27;;;20.60;;
13683;SDS011;6914;53.552;9.908;2023-01-24T00:46:43;35.30;;;18.97;;
13683;SDS011;6914;53.552;9.908;2023-01-24T00:49:11;32.63;;;19.27;;
13683;SDS011;6914;53.552;9.908;2023-01-24T00:51:38;37.13;;;20.00;;
13683;SDS011;6914;53.552;9.908;2023-01-24T00:54:05;54.57;;;20.67;;
13683;SDS011;6914;53.552;9.908;2023-01-24T00:56:32;40.10;;;20.10;;
13683;SDS011;6914;53.552;9.908;2023-01-24T00:58:59;34.17;;;19.27;;
13683;SDS011;6914;53.552;9.908;2023-01-24T01:01:25;41.33;;;20.50;;
13683;SDS011;6914;53.552;9.908;2023-01-24T01:03:54;49.03;;;20.70;;
13683;SDS011;6914;53.552;9.908;2023-01-24T01:06:23;37.67;;;20.53;;
13683;SDS011;6914;53.552;9.908;2023-01-24T01:08:51;47.13;;;20.77;;
13683;SDS011;6914;53.552;9.908;2023-01-24T01:11:18;52.87;;;21.90;;
13683;SDS011;6914;53.552;9.908;2023-01-24T01:13:45;47.57;;;21.73;;
13683;SDS011;6914;53.552;9.908;2023-01-24T01:16:13;47.43;;;22.43;;
13683;SDS011;6914;53.552;9.908;2023-01-24T01:18:42;37.80;;;21.43;;
13683;SDS011;6914;53.552;9.908;2023-01-24T01:21:10;40.63;;;19.83;;
13683;SDS011;6914;53.552;9.908;2023-01-24T01:23:39;41.23;;;20.50;;
13683;SDS011;6914;53.552;9.908;2023-01-24T01:26:08;40.37;;;21.13;;
13683;SDS011;6914;53.552;9.908;2023-01-24T01:28:38;31.60;;;19.37;;
13683;SDS011;6914;53.552;9.908;2023-01-24T01:31:06;35.60;;;20.17;;
13683;SDS011;6914;53.552;9.908;2023-01-24T01:33:32;43.33;;;19.93;;
13683;SDS011;6914;53.552;9.908;2023-01-24T01:35:59;42.50;;;20.93;;
13683;SDS011;6914;53.552;9.908;2023-01-24T01:38:26;47.43;;;21.33;;
13683;SDS011;6914;53.552;9.908;2023-01-24T01:40:56;35.90;;;20.20;;
13683;SDS011;6914;53.552;9.908;2023-01-24T01:43:23;39.73;;;19.93;;
13683;SDS011;6914;53.552;9.908;2023-01-24T01:45:51;43.57;;;21.47;;
13683;SDS011;6914;53.552;9.908;2023-01-24T01:48:21;40.03;;;19.33;;
13683;SDS011;6914;53.552;9.908;2023-01-24T01:50:53;43.07;;;20.80;;
13683;SDS011;6914;53.552;9.908;2023-01-24T01:53:24;40.17;;;20.70;;
13683;SDS011;6914;53.552;9.908;2023-01-24T01:56:00;50.43;;;20.00;;
13683;SDS011;6914;53.552;9.908;2023-01-24T01:58:28;47.93;;;20.07;;
13683;SDS011;6914;53.552;9.908;2023-01-24T02:00:56;39.47;;;19.57;;
13683;SDS011;6914;53.552;9.908;2023-01-24T02:03:25;41.43;;;20.17;;
13683;SDS011;6914;53.552;9.908;2023-01-24T02:06:07;47.17;;;20.00;;
13683;SDS011;6914;53.552;9.908;2023-01-24T02:08:43;40.43;;;19.87;;
13683;SDS011;6914;53.552;9.908;2023-01-24T02:11:13;40.43;;;19.60;;
13683;SDS011;6914;53.552;9.908;2023-01-24T02:13:58;34.43;;;18.93;;
13683;SDS011;6914;53.552;9.908;2023-01-24T02:16:40;29.37;;;18.00;;
13683;SDS011;6914;53.552;9.908;2023-01-24T02:19:07;38.70;;;18.70;;
13683;SDS011;6914;53.552;9.908;2023-01-24T02:21:44;38.87;;;18.07;;
13683;SDS011;6914;53.552;9.908;2023-01-24T02:24:14;50.67;;;20.73;;
13683;SDS011;6914;53.552;9.908;2023-01-24T02:26:49;39.20;;;19.23;;
13683;SDS011;6914;53.552;9.908;2023-01-24T02:29:16;36.87;;;18.37;;
13683;SDS011;6914;53.552;9.908;2023-01-24T02:31:53;36.23;;;20.43;;
13683;SDS011;6914;53.552;9.908;2023-01-24T02:34:21;40.80;;;18.97;;
13683;SDS011;6914;53.552;9.908;2023-01-24T02:36:50;37.40;;;19.57;;
13683;SDS011;6914;53.552;9.908;2023-01-24T02:39:21;45.20;;;19.67;;
13683;SDS011;6914;53.552;9.908;2023-01-24T02:41:55;43.90;;;19.00;;
13683;SDS011;6914;53.552;9.908;2023-01-24T02:44:28;38.50;;;19.53;;
13683;SDS011;6914;53.552;9.908;2023-01-24T02:47:00;32.07;;;18.90;;
13683;SDS011;6914;53.552;9.908;2023-01-24T02:49:28;35.43;;;19.70;;
13683;SDS011;6914;53.552;9.908;2023-01-24T02:51:54;32.37;;;19.60;;
13683;SDS011;6914;53.552;9.908;2023-01-24T02:54:50;37.83;;;19.03;;
13683;SDS011;6914;53.552;9.908;2023-01-24T02:57:18;41.33;;;18.23;;
13683;SDS011;6914;53.552;9.908;2023-01-24T03:00:03;35.10;;;18.23;;
13683;SDS011;6914;53.552;9.908;2023-01-24T03:02:31;38.27;;;20.03;;
13683;SDS011;6914;53.552;9.908;2023-01-24T03:04:58;34.70;;;20.30;;
13683;SDS011;6914;53.552;9.908;2023-01-24T03:07:25;47.37;;;19.50;;
13683;SDS011;6914;53.552;9.908;2023-01-24T03:09:51;43.93;;;20.83;;
13683;SDS011;6914;53.552;9.908;2023-01-24T03:12:19;33.03;;;18.67;;
13683;SDS011;6914;53.552;9.908;2023-01-24T03:15:04;33.67;;;19.17;;
13683;SDS011;6914;53.552;9.908;2023-01-24T03:17:49;38.43;;;19.63;;
13683;SDS011;6914;53.552;9.908;2023-01-24T03:20:33;39.20;;;18.83;;
13683;SDS011;6914;53.552;9.908;2023-01-24T03:23:17;37.77;;;19.67;;
13683;SDS011;6914;53.552;9.908;2023-01-24T03:26:01;35.83;;;18.57;;
13683;SDS011;6914;53.552;9.908;2023-01-24T03:28:47;35.60;;;19.57;;
13683;SDS011;6914;53.552;9.908;2023-01-24T03:31:32;39.83;;;20.30;;
13683;SDS011;6914;53.552;9.908;2023-01-24T03:34:16;33.40;;;19.40;;
13683;SDS011;6914;53.552;9.908;2023-01-24T03:36:58;37.47;;;19.80;;
13683;SDS011;6914;53.552;9.908;2023-01-24T03:39:25;40.07;;;19.07;;
13683;SDS011;6914;53.552;9.908;2023-01-24T03:42:10;35.90;;;18.80;;
13683;SDS011;6914;53.552;9.908;2023-01-24T03:44:40;37.80;;;20.27;;
13683;SDS011;6914;53.552;9.908;2023-01-24T03:47:07;40.90;;;19.10;;
13683;SDS011;6914;53.552;9.908;2023-01-24T03:49:34;34.33;;;18.80;;
13683;SDS011;6914;53.552;9.908;2023-01-24T03:52:18;32.00;;;18.17;;
13683;SDS011;6914;53.552;9.908;2023-01-24T03:54:51;31.37;;;17.00;;
13683;SDS011;6914;53.552;9.908;2023-01-24T03:57:18;33.20;;;18.63;;
13683;SDS011;6914;53.552;9.908;2023-01-24T03:59:46;39.00;;;19.80;;
13683;SDS011;6914;53.552;9.908;2023-01-24T04:02:13;33.93;;;19.63;;
13683;SDS011;6914;53.552;9.908;2023-01-24T04:04:40;34.40;;;18.07;;
13683;SDS011;6914;53.552;9.908;2023-01-24T04:07:24;32.93;;;18.60;;
13683;SDS011;6914;53.552;9.908;2023-01-24T04:09:51;38.33;;;19.23;;
13683;SDS011;6914;53.552;9.908;2023-01-24T04:12:18;31.00;;;19.33;;
13683;SDS011;6914;53.552;9.908;2023-01-24T04:14:46;38.10;;;19.03;;
13683;SDS011;6914;53.552;9.908;2023-01-24T04:17:13;41.43;;;18.53;;
13683;SDS011;6914;53.552;9.908;2023-01-24T04:19:40;36.67;;;18.13;;
13683;SDS011;6914;53.552;9.908;2023-01-24T04:22:07;32.53;;;17.87;;
13683;SDS011;6914;53.552;9.908;2023-01-24T04:24:33;25.40;;;16.47;;
13683;SDS011;6914;53.552;9.908;2023-01-24T04:27:00;35.50;;;17.80;;
13683;SDS011;6914;53.552;9.908;2023-01-24T04:29:27;45.07;;;18.13;;
13683;SDS011;6914;53.552;9.908;2023-01-24T04:31:55;40.33;;;17.87;;
13683;SDS011;6914;53.552;9.908;2023-01-24T04:34:22;35.40;;;17.73;;
13683;SDS011;6914;53.552;9.908;2023-01-24T04:36:49;32.23;;;17.00;;
13683;SDS011;6914;53.552;9.908;2023-01-24T04:39:15;23.90;;;15.17;;
13683;SDS011;6914;53.552;9.908;2023-01-24T04:41:42;34.10;;;17.40;;
13683;SDS011;6914;53.552;9.908;2023-01-24T04:44:09;29.27;;;18.60;;
13683;SDS011;6914;53.552;9.908;2023-01-24T04:46:36;29.07;;;16.20;;
13683;SDS011;6914;53.552;9.908;2023-01-24T04:49:04;29.10;;;16.00;;
13683;SDS011;6914;53.552;9.908;2023-01-24T04:51:31;31.13;;;16.57;;
13683;SDS011;6914;53.552;9.908;2023-01-24T04:53:58;25.67;;;14.60;;
13683;SDS011;6914;53.552;9.908;2023-01-24T04:56:25;26.93;;;16.77;;
13683;SDS011;6914;53.552;9.908;2023-01-24T04:58:52;25.37;;;14.47;;
13683;SDS011;6914;53.552;9.908;2023-01-24T05:01:19;26.40;;;16.10;;
13683;SDS011;6914;53.552;9.908;2023-01-24T05:03:45;29.73;;;17.17;;
13683;SDS011;6914;53.552;9.908;2023-01-24T05:06:16;30.27;;;15.10;;
13683;SDS011;6914;53.552;9.908;2023-01-24T05:08:43;20.67;;;12.90;;
13683;SDS011;6914;53.552;9.908;2023-01-24T05:11:10;26.50;;;14.27;;
13683;SDS011;6914;53.552;9.908;2023-01-24T05:13:37;25.03;;;13.90;;
13683;SDS011;6914;53.552;9.908;2023-01-24T05:16:04;22.03;;;14.43;;
13683;SDS011;6914;53.552;9.908;2023-01-24T05:18:33;29.30;;;15.17;;
13683;SDS011;6914;53.552;9.908;2023-01-24T05:21:04;27.70;;;15.07;;
13683;SDS011;6914;53.552;9.908;2023-01-24T05:23:33;25.60;;;14.43;;
13683;SDS011;6914;53.552;9.908;2023-01-24T05:26:00;24.03;;;14.40;;
13683;SDS011;6914;53.552;9.908;2023-01-24T05:28:27;22.63;;;14.90;;
13683;SDS011;6914;53.552;9.908;2023-01-24T05:30:57;20.10;;;13.20;;
13683;SDS011;6914;53.552;9.908;2023-01-24T05:33:25;22.50;;;13.27;;
13683;SDS011;6914;53.552;9.908;2023-01-24T05:35:56;18.23;;;10.80;;
13683;SDS011;6914;53.552;9.908;2023-01-24T05:38:28;22.60;;;11.70;;
13683;SDS011;6914;53.552;9.908;2023-01-24T05:40:59;24.40;;;12.33;;
13683;SDS011;6914;53.552;9.908;2023-01-24T05:43:27;19.40;;;12.50;;
13683;SDS011;6914;53.552;9.908;2023-01-24T05:45:56;19.03;;;12.70;;
13683;SDS011;6914;53.552;9.908;2023-01-24T05:48:24;16.90;;;11.73;;
13683;SDS011;6914;53.552;9.908;2023-01-24T05:50:55;20.37;;;13.33;;
13683;SDS011;6914;53.552;9.908;2023-01-24T05:53:23;21.43;;;11.63;;
13683;SDS011;6914;53.552;9.908;2023-01-24T05:55:55;19.87;;;12.57;;
13683;SDS011;6914;53.552;9.908;2023-01-24T05:58:22;18.90;;;12.17;;
13683;SDS011;6914;53.552;9.908;2023-01-24T06:00:49;19.30;;;12.30;;
13683;SDS011;6914;53.552;9.908;2023-01-24T06:03:16;19.97;;;12.70;;
13683;SDS011;6914;53.552;9.908;2023-01-24T06:05:44;16.83;;;11.37;;
13683;SDS011;6914;53.552;9.908;2023-01-24T06:08:12;13.93;;;9.13;;
13683;SDS011;6914;53.552;9.908;2023-01-24T06:10:39;10.87;;;8.83;;
13683;SDS011;6914;53.552;9.908;2023-01-24T06:13:07;15.40;;;10.20;;
13683;SDS011;6914;53.552;9.908;2023-01-24T06:15:34;12.83;;;10.60;;
13683;SDS011;6914;53.552;9.908;2023-01-24T06:18:02;16.20;;;10.43;;
13683;SDS011;6914;53.552;9.908;2023-01-24T06:20:29;14.90;;;10.93;;
13683;SDS011;6914;53.552;9.908;2023-01-24T06:22:57;17.63;;;11.60;;
13683;SDS011;6914;53.552;9.908;2023-01-24T06:25:28;18.47;;;12.00;;
13683;SDS011;6914;53.552;9.908;2023-01-24T06:27:56;14.97;;;12.30;;
13683;SDS011;6914;53.552;9.908;2023-01-24T06:30:25;13.63;;;10.40;;
13683;SDS011;6914;53.552;9.908;2023-01-24T06:32:56;11.70;;;10.53;;
13683;SDS011;6914;53.552;9.908;2023-01-24T06:35:36;11.33;;;9.10;;
13683;SDS011;6914;53.552;9.908;2023-01-24T06:38:17;15.30;;;8.97;;
13683;SDS011;6914;53.552;9.908;2023-01-24T06:40:46;14.43;;;9.80;;
13683;SDS011;6914;53.552;9.908;2023-01-24T06:43:18;13.80;;;10.20;;
13683;SDS011;6914;53.552;9.908;2023-01-24T06:45:46;13.93;;;10.63;;
13683;SDS011;6914;53.552;9.908;2023-01-24T06:48:14;13.47;;;11.03;;
13683;SDS011;6914;53.552;9.908;2023-01-24T06:50:44;12.73;;;9.90;;
13683;SDS011;6914;53.552;9.908;2023-01-24T06:53:11;22.63;;;10.67;;
13683;SDS011;6914;53.552;9.908;2023-01-24T06:55:39;22.50;;;12.07;;
13683;SDS011;6914;53.552;9.908;2023-01-24T06:58:09;13.13;;;10.00;;
13683;SDS011;6914;53.552;9.908;2023-01-24T07:00:36;14.10;;;10.37;;
13683;SDS011;6914;53.552;9.908;2023-01-24T07:03:05;11.73;;;9.80;;
13683;SDS011;6914;53.552;9.908;2023-01-24T07:05:34;11.90;;;9.30;;
13683;SDS011;6914;53.552;9.908;2023-01-24T07:08:02;13.20;;;9.50;;
13683;SDS011;6914;53.552;9.908;2023-01-24T07:10:30;11.80;;;9.27;;
13683;SDS011;6914;53.552;9.908;2023-01-24T07:12:57;11.53;;;10.00;;
13683;SDS011;6914;53.552;9.908;2023-01-24T07:15:24;12.30;;;10.17;;
13683;SDS011;6914;53.552;9.908;2023-01-24T07:17:51;14.20;;;10.30;;
13683;SDS011;6914;53.552;9.908;2023-01-24T07:20:21;12.13;;;10.20;;
13683;SDS011;6914;53.552;9.908;2023-01-24T07:22:48;11.67;;;9.77;;
13683;SDS011;6914;53.552;9.908;2023-01-24T07:25:17;17.33;;;10.33;;
13683;SDS011;6914;53.552;9.908;2023-01-24T07:27:47;14.23;;;10.87;;
13683;SDS011;6914;53.552;9.908;2023-01-24T07:30:14;16.03;;;10.67;;
13683;SDS011;6914;53.552;9.908;2023-01-24T07:32:42;13.13;;;10.90;;
13683;SDS011;6914;53.552;9.908;2023-01-24T07:35:09;11.80;;;10.60;;
13683;SDS011;6914;53.552;9.908;2023-01-24T07:37:38;14.13;;;11.00;;
13683;SDS011;6914;53.552;9.908;2023-01-24T07:40:05;15.30;;;9.90;;
13683;SDS011;6914;53.552;9.908;2023-01-24T07:42:33;15.17;;;10.60;;
13683;SDS011;6914;53.552;9.908;2023-01-24T07:45:00;16.53;;;10.60;;
13683;SDS011;6914;53.552;9.908;2023-01-24T07:47:27;14.30;;;10.10;;
13683;SDS011;6914;53.552;9.908;2023-01-24T07:49:55;15.87;;;10.93;;
13683;SDS011;6914;53.552;9.908;2023-01-24T07:52:23;14.73;;;10.63;;
13683;SDS011;6914;53.552;9.908;2023-01-24T07:54:51;10.83;;;9.20;;
13683;SDS011;6914;53.552;9.908;2023-01-24T07:57:18;13.70;;;10.03;;
13683;SDS011;6914;53.552;9.908;2023-01-24T07:59:47;12.60;;;10.07;;
13683;SDS011;6914;53.552;9.908;2023-01-24T08:02:14;11.30;;;9.80;;
13683;SDS011;6914;53.552;9.908;2023-01-24T08:04:41;11.43;;;8.87;;
13683;SDS011;6914;53.552;9.908;2023-01-24T08:07:08;12.87;;;9.93;;
13683;SDS011;6914;53.552;9.908;2023-01-24T08:09:47;9.97;;;7.90;;
13683;SDS011;6914;53.552;9.908;2023-01-24T08:12:16;16.43;;;9.10;;
13683;SDS011;6914;53.552;9.908;2023-01-24T08:14:46;15.50;;;10.23;;
13683;SDS011;6914;53.552;9.908;2023-01-24T08:17:13;14.47;;;10.07;;
13683;SDS011;6914;53.552;9.908;2023-01-24T08:19:40;17.23;;;11.37;;
13683;SDS011;6914;53.552;9.908;2023-01-24T08:22:07;10.97;;;9.03;;
13683;SDS011;6914;53.552;9.908;2023-01-24T08:24:34;17.10;;;11.27;;
13683;SDS011;6914;53.552;9.908;2023-01-24T08:27:01;12.73;;;9.60;;
13683;SDS011;6914;53.552;9.908;2023-01-24T08:29:32;15.90;;;12.03;;
13683;SDS011;6914;53.552;9.908;2023-01-24T08:31:59;12.03;;;10.73;;
13683;SDS011;6914;53.552;9.908;2023-01-24T08:34:26;14.13;;;10.87;;
13683;SDS011;6914;53.552;9.908;2023-01-24T08:36:53;13.33;;;11.67;;
13683;SDS011;6914;53.552;9.908;2023-01-24T08:39:21;19.37;;;11.80;;
13683;SDS011;6914;53.552;9.908;2023-01-24T08:41:48;19.40;;;11.43;;
13683;SDS011;6914;53.552;9.908;2023-01-24T08:44:15;17.07;;;11.80;;
13683;SDS011;6914;53.552;9.908;2023-01-24T08:46:45;15.57;;;10.80;;
13683;SDS011;6914;53.552;9.908;2023-01-24T08:49:12;17.00;;;11.20;;
13683;SDS011;6914;53.552;9.908;2023-01-24T08:51:38;15.70;;;11.97;;
13683;SDS011;6914;53.552;9.908;2023-01-24T08:54:06;16.90;;;11.60;;
13683;SDS011;6914;53.552;9.908;2023-01-24T08:56:33;15.20;;;9.77;;
13683;SDS011;6914;53.552;9.908;2023-01-24T08:59:00;15.80;;;10.90;;
13683;SDS011;6914;53.552;9.908;2023-01-24T09:01:27;16.87;;;12.00;;
13683;SDS011;6914;53.552;9.908;2023-01-24T09:03:55;13.90;;;10.10;;
13683;SDS011;6914;53.552;9.908;2023-01-24T09:06:24;17.77;;;11.60;;
13683;SDS011;6914;53.552;9.908;2023-01-24T09:08:52;12.53;;;9.77;;
13683;SDS011;6914;53.552;9.908;2023-01-24T09:11:20;12.73;;;10.30;;
13683;SDS011;6914;53.552;9.908;2023-01-24T09:13:50;16.67;;;11.43;;
13683;SDS011;6914;53.552;9.908;2023-01-24T09:16:17;13.47;;;10.53;;
13683;SDS011;6914;53.552;9.908;2023-01-24T09:18:47;17.33;;;10.37;;
13683;SDS011;6914;53.552;9.908;2023-01-24T09:21:15;18.90;;;11.63;;
13683;SDS011;6914;53.552;9.908;2023-01-24T09:23:43;15.83;;;10.80;;
13683;SDS011;6914;53.552;9.908;2023-01-24T09:26:10;15.83;;;11.33;;
13683;SDS011;6914;53.552;9.908;2023-01-24T09:28:37;22.27;;;11.23;;
13683;SDS011;6914;53.552;9.908;2023-01-24T09:31:06;16.20;;;11.47;;
13683;SDS011;6914;53.552;9.908;2023-01-24T09:33:34;17.20;;;10.77;;
13683;SDS011;6914;53.552;9.908;2023-01-24T09:36:01;22.30;;;10.60;;
13683;SDS011;6914;53.552;9.908;2023-01-24T09:38:30;12.93;;;10.20;;
13683;SDS011;6914;53.552;9.908;2023-01-24T09:41:02;18.67;;;11.47;;
13683;SDS011;6914;53.552;9.908;2023-01-24T09:43:41;16.40;;;12.10;;
13683;SDS011;6914;53.552;9.908;2023-01-24T09:46:15;14.20;;;9.33;;
13683;SDS011;6914;53.552;9.908;2023-01-24T09:48:52;16.23;;;10.10;;
13683;SDS011;6914;53.552;9.908;2023-01-24T09:51:29;19.67;;;10.80;;
13683;SDS011;6914;53.552;9.908;2023-01-24T09:54:01;19.10;;;10.80;;
13683;SDS011;6914;53.552;9.908;2023-01-24T09:56:32;18.47;;;11.70;;
13683;SDS011;6914;53.552;9.908;2023-01-24T09:59:13;17.07;;;10.33;;
13683;SDS011;6914;53.552;9.908;2023-01-24T10:01:50;11.00;;;9.90;;
13683;SDS011;6914;53.552;9.908;2023-01-24T10:04:21;13.50;;;10.50;;
13683;SDS011;6914;53.552;9.908;2023-01-24T10:07:20;20.87;;;10.80;;
13683;SDS011;6914;53.552;9.908;2023-01-24T10:10:24;14.43;;;11.00;;
13683;SDS011;6914;53.552;9.908;2023-01-24T10:13:07;20.37;;;11.20;;
13683;SDS011;6914;53.552;9.908;2023-01-24T10:15:44;24.90;;;11.57;;
13683;SDS011;6914;53.552;9.908;2023-01-24T10:18:20;20.87;;;12.23;;
13683;SDS011;6914;53.552;9.908;2023-01-24T10:21:07;16.87;;;11.37;;
13683;SDS011;6914;53.552;9.908;2023-01-24T10:23:43;16.20;;;10.97;;
13683;SDS011;6914;53.552;9.908;2023-01-24T10:26:16;21.23;;;12.50;;
13683;SDS011;6914;53.552;9.908;2023-01-24T10:28:47;19.47;;;12.77;;
13683;SDS011;6914;53.552;9.908;2023-01-24T10:31:17;16.53;;;10.90;;
13683;SDS011;6914;53.552;9.908;2023-01-24T10:33:47;20.03;;;12.20;;
13683;SDS011;6914;53.552;9.908;2023-01-24T10:36:19;18.03;;;11.03;;
13683;SDS011;6914;53.552;9.908;2023-01-24T10:38:54;22.00;;;11.20;;
13683;SDS011;6914;53.552;9.908;2023-01-24T10:41:24;16.53;;;11.27;;
13683;SDS011;6914;53.552;9.908;2023-01-24T10:43:58;15.87;;;11.60;;
13683;SDS011;6914;53.552;9.908;2023-01-24T10:46:34;16.73;;;11.37;;
13683;SDS011;6914;53.552;9.908;2023-01-24T10:49:19;24.47;;;11.67;;
13683;SDS011;6914;53.552;9.908;2023-01-24T10:52:07;13.07;;;10.60;;
13683;SDS011;6914;53.552;9.908;2023-01-24T10:54:47;16.33;;;9.80;;
13683;SDS011;6914;53.552;9.908;2023-01-24T10:57:18;20.07;;;10.43;;
13683;SDS011;6914;53.552;9.908;2023-01-24T11:00:00;13.30;;;10.40;;
13683;SDS011;6914;53.552;9.908;2023-01-24T11:02:31;22.77;;;11.57;;
13683;SDS011;6914;53.552;9.908;2023-01-24T11:05:00;16.40;;;10.87;;
13683;SDS011;6914;53.552;9.908;2023-01-24T11:07:29;19.33;;;11.10;;
13683;SDS011;6914;53.552;9.908;2023-01-24T11:09:58;12.83;;;11.00;;
13683;SDS011;6914;53.552;9.908;2023-01-24T11:12:27;19.60;;;11.53;;
13683;SDS011;6914;53.552;9.908;2023-01-24T11:14:54;14.23;;;10.63;;
13683;SDS011;6914;53.552;9.908;2023-01-24T11:17:31;18.43;;;12.50;;
13683;SDS011;6914;53.552;9.908;2023-01-24T11:20:02;19.07;;;12.33;;
13683;SDS011;6914;53.552;9.908;2023-01-24T11:22:50;25.53;;;11.87;;
13683;SDS011;6914;53.552;9.908;2023-01-24T11:25:17;23.43;;;12.57;;
13683;SDS011;6914;53.552;9.908;2023-01-24T11:27:47;21.83;;;12.10;;
13683;SDS011;6914;53.552;9.908;2023-01-24T11:30:16;16.63;;;11.03;;
13683;SDS011;6914;53.552;9.908;2023-01-24T11:32:49;24.87;;;12.10;;
13683;SDS011;6914;53.552;9.908;2023-01-24T11:35:24;17.47;;;12.57;;
13683;SDS011;6914;53.552;9.908;2023-01-24T11:38:13;20.50;;;10.70;;
13683;SDS011;6914;53.552;9.908;2023-01-24T11:40:53;18.17;;;10.83;;
13683;SDS011;6914;53.552;9.908;2023-01-24T11:43:34;14.23;;;9.97;;
13683;SDS011;6914;53.552;9.908;2023-01-24T11:46:26;18.40;;;10.40;;
13683;SDS011;6914;53.552;9.908;2023-01-24T11:49:12;17.20;;;10.27;;
13683;SDS011;6914;53.552;9.908;2023-01-24T11:52:01;17.37;;;10.63;;
13683;SDS011;6914;53.552;9.908;2023-01-24T11:54:38;14.50;;;10.90;;
13683;SDS011;6914;53.552;9.908;2023-01-24T11:57:12;22.53;;;10.13;;
13683;SDS011;6914;53.552;9.908;2023-01-24T11:59:56;24.53;;;10.60;;
13683;SDS011;6914;53.552;9.908;2023-01-24T12:02:50;18.30;;;11.73;;
13683;SDS011;6914;53.552;9.908;2023-01-24T12:05:41;16.67;;;11.27;;
13683;SDS011;6914;53.552;9.908;2023-01-24T12:08:21;13.70;;;11.90;;
13683;SDS011;6914;53.552;9.908;2023-01-24T12:11:00;16.03;;;11.80;;
13683;SDS011;6914;53.552;9.908;2023-01-24T12:13:32;20.90;;;12.03;;
13683;SDS011;6914;53.552;9.908;2023-01-24T12:16:11;17.07;;;10.83;;
13683;SDS011;6914;53.552;9.908;2023-01-24T12:18:51;21.37;;;11.50;;
13683;SDS011;6914;53.552;9.908;2023-01-24T12:21:33;15.20;;;11.13;;
13683;SDS011;6914;53.552;9.908;2023-01-24T12:24:00;17.10;;;12.30;;
13683;SDS011;6914;53.552;9.908;2023-01-24T12:26:31;16.20;;;12.40;;
13683;SDS011;6914;53.552;9.908;2023-01-24T12:29:03;25.40;;;11.93;;
13683;SDS011;6914;53.552;9.908;2023-01-24T12:31:41;20.00;;;12.50;;
13683;SDS011;6914;53.552;9.908;2023-01-24T12:34:27;16.70;;;11.40;;
13683;SDS011;6914;53.552;9.908;2023-01-24T12:37:02;17.80;;;12.63;;
13683;SDS011;6914;53.552;9.908;2023-01-24T12:39:38;15.03;;;11.77;;
13683;SDS011;6914;53.552;9.908;2023-01-24T12:42:12;19.13;;;12.60;;
13683;SDS011;6914;53.552;9.908;2023-01-24T12:44:45;15.13;;;11.67;;
13683;SDS011;6914;53.552;9.908;2023-01-24T12:47:22;14.07;;;9.87;;
13683;SDS011;6914;53.552;9.908;2023-01-24T12:49:58;13.47;;;10.50;;
13683;SDS011;6914;53.552;9.908;2023-01-24T12:52:35;23.10;;;11.77;;
13683;SDS011;6914;53.552;9.908;2023-01-24T12:55:08;18.43;;;11.80;;
13683;SDS011;6914;53.552;9.908;2023-01-24T12:57:40;16.27;;;12.70;;
13683;SDS011;6914;53.552;9.908;2023-01-24T13:00:14;24.73;;;14.30;;
13683;SDS011;6914;53.552;9.908;2023-01-24T13:02:54;18.37;;;13.43;;
13683;SDS011;6914;53.552;9.908;2023-01-24T13:05:43;18.63;;;11.60;;
13683;SDS011;6914;53.552;9.908;2023-01-24T13:08:18;17.87;;;11.90;;
13683;SDS011;6914;53.552;9.908;2023-01-24T13:10:56;17.40;;;12.47;;
13683;SDS011;6914;53.552;9.908;2023-01-24T13:13:35;18.20;;;11.83;;
13683;SDS011;6914;53.552;9.908;2023-01-24T13:16:14;19.93;;;12.10;;
13683;SDS011;6914;53.552;9.908;2023-01-24T13:19:03;14.30;;;12.07;;
13683;SDS011;6914;53.552;9.908;2023-01-24T13:21:39;17.13;;;12.83;;
13683;SDS011;6914;53.552;9.908;2023-01-24T13:24:34;26.23;;;13.43;;
13683;SDS011;6914;53.552;9.908;2023-01-24T13:27:22;21.17;;;12.33;;
13683;SDS011;6914;53.552;9.908;2023-01-24T13:32:56;16.93;;;12.30;;
13683;SDS011;6914;53.552;9.908;2023-01-24T13:35:29;21.43;;;13.63;;
13683;SDS011;6914;53.552;9.908;2023-01-24T13:38:01;23.87;;;13.30;;
13683;SDS011;6914;53.552;9.908;2023-01-24T13:40:31;13.97;;;10.93;;
13683;SDS011;6914;53.552;9.908;2023-01-24T13:43:00;18.50;;;14.63;;
13683;SDS011;6914;53.552;9.908;2023-01-24T13:45:47;18.10;;;12.13;;
13683;SDS011;6914;53.552;9.908;2023-01-24T13:51:27;18.83;;;13.17;;
13683;SDS011;6914;53.552;9.908;2023-01-24T13:53:58;26.80;;;14.63;;
13683;SDS011;6914;53.552;9.908;2023-01-24T13:56:26;22.67;;;14.77;;
13683;SDS011;6914;53.552;9.908;2023-01-24T13:58:57;26.03;;;13.87;;
13683;SDS011;6914;53.552;9.908;2023-01-24T14:01:25;22.80;;;14.80;;
13683;SDS011;6914;53.552;9.908;2023-01-24T14:03:55;16.50;;;13.83;;
13683;SDS011;6914;53.552;9.908;2023-01-24T14:06:26;19.73;;;13.43;;
13683;SDS011;6914;53.552;9.908;2023-01-24T14:09:11;18.90;;;13.43;;
13683;SDS011;6914;53.552;9.908;2023-01-24T14:11:55;23.30;;;15.30;;
13683;SDS011;6914;53.552;9.908;2023-01-24T14:14:36;17.90;;;13.60;;
13683;SDS011;6914;53.552;9.908;2023-01-24T14:17:28;17.23;;;14.00;;
13683;SDS011;6914;53.552;9.908;2023-01-24T14:20:20;38.13;;;14.53;;
13683;SDS011;6914;53.552;9.908;2023-01-24T14:22:52;19.10;;;13.03;;
13683;SDS011;6914;53.552;9.908;2023-01-24T14:25:33;23.47;;;14.00;;
13683;SDS011;6914;53.552;9.908;2023-01-24T14:28:11;20.97;;;13.37;;
13683;SDS011;6914;53.552;9.908;2023-01-24T14:30:46;19.50;;;13.83;;
13683;SDS011;6914;53.552;9.908;2023-01-24T14:33:19;24.77;;;15.33;;
13683;SDS011;6914;53.552;9.908;2023-01-24T14:35:58;18.80;;;14.63;;
13683;SDS011;6914;53.552;9.908;2023-01-24T14:38:28;22.50;;;13.67;;
13683;SDS011;6914;53.552;9.908;2023-01-24T14:40:56;24.70;;;13.67;;
13683;SDS011;6914;53.552;9.908;2023-01-24T14:43:24;17.80;;;12.33;;
13683;SDS011;6914;53.552;9.908;2023-01-24T14:46:07;18.60;;;12.37;;
13683;SDS011;6914;53.552;9.908;2023-01-24T14:48:35;21.33;;;13.30;;
13683;SDS011;6914;53.552;9.908;2023-01-24T14:51:03;16.30;;;13.10;;
13683;SDS011;6914;53.552;9.908;2023-01-24T14:53:33;28.37;;;15.40;;
13683;SDS011;6914;53.552;9.908;2023-01-24T14:56:05;18.07;;;13.23;;
13683;SDS011;6914;53.552;9.908;2023-01-24T14:58:36;18.70;;;14.93;;
13683;SDS011;6914;53.552;9.908;2023-01-24T15:01:03;26.73;;;13.50;;
13683;SDS011;6914;53.552;9.908;2023-01-24T15:03:46;27.53;;;14.30;;
13683;SDS011;6914;53.552;9.908;2023-01-24T15:06:16;19.73;;;14.43;;
13683;SDS011;6914;53.552;9.908;2023-01-24T15:08:46;17.73;;;13.77;;